sensor_id;sensor_type;location;lat;lon;timestamp;temperature;humidity
13251;DHT22;6692;50.710;7.180;2023-01-24T00:00:43;4.60;99.90
13251;DHT22;6692;50.710;7.180;2023-01-24T00:02:44;4.60;99.90
13251;DHT22;6692;50.710;7.180;2023-01-24T00:04:45;4.60;99.90
13251;DHT22;6692;50.710;7.180;2023-01-24T00:06:46;4.60;99.90
13251;DHT22;6692;50.710;7.180;2023-01-24T00:08:46;4.60;99.90
13251;DHT22;6692;50.710;7.180;2023-01-24T00:10:47;4.60;99.90
13251;DHT22;6692;50.710;7.180;2023-01-24T00:12:48;4.60;99.90
13251;DHT22;6692;50.710;7.180;2023-01-24T00:14:49;4.60;99.90
13251;DHT22;6692;50.710;7.180;2023-01-24T00:16:50;4.60;99.90
13251;DHT22;6692;50.710;7.180;2023-01-24T00:18:51;4.60;99.90
13251;DHT22;6692;50.710;7.180;2023-01-24T00:20:59;4.60;99.90
13251;DHT22;6692;50.710;7.180;2023-01-24T00:22:54;4.60;99.90
13251;DHT22;6692;50.710;7.180;2023-01-24T00:24:55;4.60;99.90
13251;DHT22;6692;50.710;7.180;2023-01-24T00:26:55;4.60;99.90
13251;DHT22;6692;50.710;7.180;2023-01-24T00:28:57;4.60;99.90
13251;DHT22;6692;50.710;7.180;2023-01-24T00:30:58;4.60;99.90
13251;DHT22;6692;50.710;7.180;2023-01-24T00:32:59;4.60;99.90
13251;DHT22;6692;50.710;7.180;2023-01-24T00:35:00;4.60;99.90
13251;DHT22;6692;50.710;7.180;2023-01-24T00:37:00;4.60;99.90
13251;DHT22;6692;50.710;7.180;2023-01-24T00:39:01;4.60;99.90
13251;DHT22;6692;50.710;7.180;2023-01-24T00:41:03;4.60;99.90
13251;DHT22;6692;50.710;7.180;2023-01-24T00:43:04;4.60;99.90
13251;DHT22;6692;50.710;7.180;2023-01-24T00:45:06;4.60;99.90
13251;DHT22;6692;50.710;7.180;2023-01-24T00:47:08;4.60;99.90
13251;DHT22;6692;50.710;7.180;2023-01-24T00:49:09;4.60;99.90
13251;DHT22;6692;50.710;7.180;2023-01-24T00:51:10;4.60;99.90
13251;DHT22;6692;50.710;7.180;2023-01-24T00:53:11;4.60;99.90
13251;DHT22;6692;50.710;7.180;2023-01-24T00:55:11;4.60;99.90
13251;DHT22;6692;50.710;7.180;2023-01-24T00:57:12;4.60;99.90
13251;DHT22;6692;50.710;7.180;2023-01-24T00:59:13;4.50;99.90
13251;DHT22;6692;50.710;7.180;2023-01-24T01:01:14;4.50;99.90
13251;DHT22;6692;50.710;7.180;2023-01-24T01:03:16;4.50;99.90
13251;DHT22;6692;50.710;7.180;2023-01-24T01:05:16;4.50;99.90
13251;DHT22;6692;50.710;7.180;2023-01-24T01:07:16;4.50;99.90
13251;DHT22;6692;50.710;7.180;2023-01-24T01:09:17;4.50;99.90
13251;DHT22;6692;50.710;7.180;2023-01-24T01:11:18;4.50;99.90
13251;DHT22;6692;50.710;7.180;2023-01-24T01:13:19;4.50;99.90
13251;DHT22;6692;50.710;7.180;2023-01-24T01:15:20;4.50;99.90
13251;DHT22;6692;50.710;7.180;2023-01-24T01:17:21;4.50;99.90
13251;DHT22;6692;50.710;7.180;2023-01-24T01:19:21;4.50;99.90
13251;DHT22;6692;50.710;7.180;2023-01-24T01:21:22;4.50;99.90
13251;DHT22;6692;50.710;7.180;2023-01-24T01:23:24;4.50;99.90
13251;DHT22;6692;50.710;7.180;2023-01-24T01:25:25;4.50;99.90
13251;DHT22;6692;50.710;7.180;2023-01-24T01:27:27;4.50;99.90
13251;DHT22;6692;50.710;7.180;2023-01-24T01:29:27;4.50;99.90
13251;DHT22;6692;50.710;7.180;2023-01-24T01:31:28;4.50;99.90
13251;DHT22;6692;50.710;7.180;2023-01-24T01:33:29;4.50;99.90
13251;DHT22;6692;50.710;7.180;2023-01-24T01:35:29;4.50;99.90
13251;DHT22;6692;50.710;7.180;2023-01-24T01:37:30;4.50;99.90
13251;DHT22;6692;50.710;7.180;2023-01-24T01:39:31;4.50;99.90
13251;DHT22;6692;50.710;7.180;2023-01-24T01:41:32;4.50;99.90
13251;DHT22;6692;50.710;7.180;2023-01-24T01:43:33;4.40;99.90
13251;DHT22;6692;50.710;7.180;2023-01-24T01:45:39;4.40;99.90
13251;DHT22;6692;50.710;7.180;2023-01-24T01:47:38;4.50;99.90
13251;DHT22;6692;50.710;7.180;2023-01-24T01:49:39;4.50;99.90
13251;DHT22;6692;50.710;7.180;2023-01-24T01:51:43;4.40;99.90
13251;DHT22;6692;50.710;7.180;2023-01-24T01:53:45;4.40;99.90
13251;DHT22;6692;50.710;7.180;2023-01-24T01:55:45;4.50;99.90
13251;DHT22;6692;50.710;7.180;2023-01-24T01:57:45;4.50;99.90
13251;DHT22;6692;50.710;7.180;2023-01-24T02:00:02;4.50;99.90
13251;DHT22;6692;50.710;7.180;2023-01-24T02:02:01;4.50;99.90
13251;DHT22;6692;50.710;7.180;2023-01-24T02:04:06;4.50;99.90
13251;DHT22;6692;50.710;7.180;2023-01-24T02:06:08;4.50;99.90
13251;DHT22;6692;50.710;7.180;2023-01-24T02:08:07;4.50;99.90
13251;DHT22;6692;50.710;7.180;2023-01-24T02:10:09;4.50;99.90
13251;DHT22;6692;50.710;7.180;2023-01-24T02:12:10;4.50;99.90
13251;DHT22;6692;50.710;7.180;2023-01-24T02:14:11;4.50;99.90
13251;DHT22;6692;50.710;7.180;2023-01-24T02:16:17;4.50;99.90
13251;DHT22;6692;50.710;7.180;2023-01-24T02:18:18;4.50;99.90
13251;DHT22;6692;50.710;7.180;2023-01-24T02:20:30;4.50;99.90
13251;DHT22;6692;50.710;7.180;2023-01-24T02:22:34;4.40;99.90
13251;DHT22;6692;50.710;7.180;2023-01-24T02:24:33;4.40;99.90
13251;DHT22;6692;50.710;7.180;2023-01-24T02:26:32;4.40;99.90
13251;DHT22;6692;50.710;7.180;2023-01-24T02:28:33;4.40;99.90
13251;DHT22;6692;50.710;7.180;2023-01-24T02:30:35;4.40;99.90
13251;DHT22;6692;50.710;7.180;2023-01-24T02:32:36;4.40;99.90
13251;DHT22;6692;50.710;7.180;2023-01-24T02:34:37;4.40;99.90
13251;DHT22;6692;50.710;7.180;2023-01-24T02:36:37;4.40;99.90
13251;DHT22;6692;50.710;7.180;2023-01-24T02:38:38;4.40;99.90
13251;DHT22;6692;50.710;7.180;2023-01-24T02:40:40;4.40;99.90
13251;DHT22;6692;50.710;7.180;2023-01-24T02:42:40;4.40;99.90
13251;DHT22;6692;50.710;7.180;2023-01-24T02:44:50;4.40;99.90
13251;DHT22;6692;50.710;7.180;2023-01-24T02:46:49;4.40;99.90
13251;DHT22;6692;50.710;7.180;2023-01-24T02:48:50;4.40;99.90
13251;DHT22;6692;50.710;7.180;2023-01-24T02:50:51;4.40;99.90
13251;DHT22;6692;50.710;7.180;2023-01-24T02:52:57;4.40;99.90
13251;DHT22;6692;50.710;7.180;2023-01-24T02:55:05;4.40;99.90
13251;DHT22;6692;50.710;7.180;2023-01-24T02:57:06;4.40;99.90
13251;DHT22;6692;50.710;7.180;2023-01-24T02:59:13;4.40;99.90
13251;DHT22;6692;50.710;7.180;2023-01-24T03:01:14;4.40;99.90
13251;DHT22;6692;50.710;7.180;2023-01-24T03:03:16;4.40;99.90
13251;DHT22;6692;50.710;7.180;2023-01-24T03:05:17;4.40;99.90
13251;DHT22;6692;50.710;7.180;2023-01-24T03:07:18;4.40;99.90
13251;DHT22;6692;50.710;7.180;2023-01-24T03:09:19;4.40;99.90
13251;DHT22;6692;50.710;7.180;2023-01-24T03:11:20;4.40;99.90
13251;DHT22;6692;50.710;7.180;2023-01-24T03:13:21;4.40;99.90
13251;DHT22;6692;50.710;7.180;2023-01-24T03:15:28;4.40;99.90
13251;DHT22;6692;50.710;7.180;2023-01-24T03:17:36;4.40;99.90
13251;DHT22;6692;50.710;7.180;2023-01-24T03:19:43;4.40;99.90
13251;DHT22;6692;50.710;7.180;2023-01-24T03:21:50;4.40;99.90
13251;DHT22;6692;50.710;7.180;2023-01-24T03:23:57;4.40;99.90
13251;DHT22;6692;50.710;7.180;2023-01-24T03:26:04;4.40;99.90
13251;DHT22;6692;50.710;7.180;2023-01-24T03:28:11;4.40;99.90
13251;DHT22;6692;50.710;7.180;2023-01-24T03:30:17;4.40;99.90
13251;DHT22;6692;50.710;7.180;2023-01-24T03:32:24;4.40;99.90
13251;DHT22;6692;50.710;7.180;2023-01-24T03:34:31;4.40;99.90
13251;DHT22;6692;50.710;7.180;2023-01-24T03:36:32;4.30;99.90
13251;DHT22;6692;50.710;7.180;2023-01-24T03:38:32;4.30;99.90
13251;DHT22;6692;50.710;7.180;2023-01-24T03:40:39;4.30;99.90
13251;DHT22;6692;50.710;7.180;2023-01-24T03:42:40;4.30;99.90
13251;DHT22;6692;50.710;7.180;2023-01-24T03:44:41;4.30;99.90
13251;DHT22;6692;50.710;7.180;2023-01-24T03:46:42;4.30;99.90
13251;DHT22;6692;50.710;7.180;2023-01-24T03:48:43;4.30;99.90
13251;DHT22;6692;50.710;7.180;2023-01-24T03:50:44;4.20;99.90
13251;DHT22;6692;50.710;7.180;2023-01-24T03:52:51;4.30;99.90
13251;DHT22;6692;50.710;7.180;2023-01-24T03:54:52;4.30;99.90
13251;DHT22;6692;50.710;7.180;2023-01-24T03:56:52;4.30;99.90
13251;DHT22;6692;50.710;7.180;2023-01-24T03:58:53;4.30;99.90
13251;DHT22;6692;50.710;7.180;2023-01-24T04:00:54;4.30;99.90
13251;DHT22;6692;50.710;7.180;2023-01-24T04:02:54;4.30;99.90
13251;DHT22;6692;50.710;7.180;2023-01-24T04:04:55;4.20;99.90
13251;DHT22;6692;50.710;7.180;2023-01-24T04:07:02;4.30;99.90
13251;DHT22;6692;50.710;7.180;2023-01-24T04:09:03;4.20;99.90
13251;DHT22;6692;50.710;7.180;2023-01-24T04:11:04;4.30;99.90
13251;DHT22;6692;50.710;7.180;2023-01-24T04:13:05;4.20;99.90
13251;DHT22;6692;50.710;7.180;2023-01-24T04:15:06;4.30;99.90
13251;DHT22;6692;50.710;7.180;2023-01-24T04:17:07;4.30;99.90
13251;DHT22;6692;50.710;7.180;2023-01-24T04:19:08;4.30;99.90
13251;DHT22;6692;50.710;7.180;2023-01-24T04:21:08;4.30;99.90
13251;DHT22;6692;50.710;7.180;2023-01-24T04:23:09;4.30;99.90
13251;DHT22;6692;50.710;7.180;2023-01-24T04:25:10;4.20;99.90
13251;DHT22;6692;50.710;7.180;2023-01-24T04:27:11;4.20;99.90
13251;DHT22;6692;50.710;7.180;2023-01-24T04:29:11;4.20;99.90
13251;DHT22;6692;50.710;7.180;2023-01-24T04:31:13;4.20;99.90
13251;DHT22;6692;50.710;7.180;2023-01-24T04:33:14;4.20;99.90
13251;DHT22;6692;50.710;7.180;2023-01-24T04:35:15;4.20;99.90
13251;DHT22;6692;50.710;7.180;2023-01-24T04:37:15;4.20;99.90
13251;DHT22;6692;50.710;7.180;2023-01-24T04:39:16;4.20;99.90
13251;DHT22;6692;50.710;7.180;2023-01-24T04:41:17;4.20;99.90
13251;DHT22;6692;50.710;7.180;2023-01-24T04:43:18;4.20;99.90
13251;DHT22;6692;50.710;7.180;2023-01-24T04:45:18;4.20;99.90
13251;DHT22;6692;50.710;7.180;2023-01-24T04:47:19;4.20;99.90
13251;DHT22;6692;50.710;7.180;2023-01-24T04:49:20;4.20;99.90
13251;DHT22;6692;50.710;7.180;2023-01-24T04:51:21;4.20;99.90
13251;DHT22;6692;50.710;7.180;2023-01-24T04:53:22;4.20;99.90
13251;DHT22;6692;50.710;7.180;2023-01-24T04:55:23;4.20;99.90
13251;DHT22;6692;50.710;7.180;2023-01-24T04:57:23;4.30;99.90
13251;DHT22;6692;50.710;7.180;2023-01-24T04:59:24;4.30;99.90
13251;DHT22;6692;50.710;7.180;2023-01-24T05:01:25;4.20;99.90
13251;DHT22;6692;50.710;7.180;2023-01-24T05:03:26;4.30;99.90
13251;DHT22;6692;50.710;7.180;2023-01-24T05:05:27;4.20;99.90
13251;DHT22;6692;50.710;7.180;2023-01-24T05:07:27;4.20;99.90
13251;DHT22;6692;50.710;7.180;2023-01-24T05:09:28;4.30;99.90
13251;DHT22;6692;50.710;7.180;2023-01-24T05:11:29;4.30;99.90
13251;DHT22;6692;50.710;7.180;2023-01-24T05:13:30;4.30;99.90
13251;DHT22;6692;50.710;7.180;2023-01-24T05:15:31;4.30;99.90
13251;DHT22;6692;50.710;7.180;2023-01-24T05:17:32;4.30;99.90
13251;DHT22;6692;50.710;7.180;2023-01-24T05:19:32;4.30;99.90
13251;DHT22;6692;50.710;7.180;2023-01-24T05:21:34;4.20;99.90
13251;DHT22;6692;50.710;7.180;2023-01-24T05:23:35;4.20;99.90
13251;DHT22;6692;50.710;7.180;2023-01-24T05:25:35;4.20;99.90
13251;DHT22;6692;50.710;7.180;2023-01-24T05:27:37;4.20;99.90
13251;DHT22;6692;50.710;7.180;2023-01-24T05:29:37;4.30;99.90
13251;DHT22;6692;50.710;7.180;2023-01-24T05:31:38;4.30;99.90
13251;DHT22;6692;50.710;7.180;2023-01-24T05:33:39;4.30;99.90
13251;DHT22;6692;50.710;7.180;2023-01-24T05:35:40;4.30;99.90
13251;DHT22;6692;50.710;7.180;2023-01-24T05:37:41;4.30;99.90
13251;DHT22;6692;50.710;7.180;2023-01-24T05:39:42;4.30;99.90
13251;DHT22;6692;50.710;7.180;2023-01-24T05:41:42;4.30;99.90
13251;DHT22;6692;50.710;7.180;2023-01-24T05:43:44;4.30;99.90
13251;DHT22;6692;50.710;7.180;2023-01-24T05:45:44;4.30;99.90
13251;DHT22;6692;50.710;7.180;2023-01-24T05:47:44;4.30;99.90
13251;DHT22;6692;50.710;7.180;2023-01-24T05:49:45;4.20;99.90
13251;DHT22;6692;50.710;7.180;2023-01-24T05:51:46;4.20;99.90
13251;DHT22;6692;50.710;7.180;2023-01-24T05:53:47;4.30;99.90
13251;DHT22;6692;50.710;7.180;2023-01-24T05:55:53;4.30;99.90
13251;DHT22;6692;50.710;7.180;2023-01-24T05:57:48;4.20;99.90
13251;DHT22;6692;50.710;7.180;2023-01-24T05:59:49;4.20;99.90
13251;DHT22;6692;50.710;7.180;2023-01-24T06:01:49;4.20;99.90
13251;DHT22;6692;50.710;7.180;2023-01-24T06:03:50;4.20;99.90
13251;DHT22;6692;50.710;7.180;2023-01-24T06:05:52;4.10;99.90
13251;DHT22;6692;50.710;7.180;2023-01-24T06:07:52;4.20;99.90
13251;DHT22;6692;50.710;7.180;2023-01-24T06:09:52;4.10;99.90
13251;DHT22;6692;50.710;7.180;2023-01-24T06:11:53;4.10;99.90
13251;DHT22;6692;50.710;7.180;2023-01-24T06:13:54;4.10;99.90
13251;DHT22;6692;50.710;7.180;2023-01-24T06:15:59;4.20;99.90
13251;DHT22;6692;50.710;7.180;2023-01-24T06:17:55;4.20;99.90
13251;DHT22;6692;50.710;7.180;2023-01-24T06:19:56;4.20;99.90
13251;DHT22;6692;50.710;7.180;2023-01-24T06:22:01;4.10;99.90
13251;DHT22;6692;50.710;7.180;2023-01-24T06:24:00;4.10;99.90
13251;DHT22;6692;50.710;7.180;2023-01-24T06:26:01;4.20;99.90
13251;DHT22;6692;50.710;7.180;2023-01-24T06:28:03;4.20;99.90
13251;DHT22;6692;50.710;7.180;2023-01-24T06:32:37;4.20;99.90
13251;DHT22;6692;50.710;7.180;2023-01-24T06:34:47;4.20;99.90
13251;DHT22;6692;50.710;7.180;2023-01-24T06:37:51;4.20;99.90
13251;DHT22;6692;50.710;7.180;2023-01-24T06:39:00;4.20;99.90
13251;DHT22;6692;50.710;7.180;2023-01-24T06:41:02;4.20;99.90
13251;DHT22;6692;50.710;7.180;2023-01-24T06:43:04;4.20;99.90
13251;DHT22;6692;50.710;7.180;2023-01-24T06:45:06;4.20;99.90
13251;DHT22;6692;50.710;7.180;2023-01-24T06:47:08;4.20;99.90
13251;DHT22;6692;50.710;7.180;2023-01-24T06:49:09;4.20;99.90
13251;DHT22;6692;50.710;7.180;2023-01-24T06:51:10;4.20;99.90
13251;DHT22;6692;50.710;7.180;2023-01-24T06:53:09;4.20;99.90
13251;DHT22;6692;50.710;7.180;2023-01-24T06:55:10;4.20;99.90
13251;DHT22;6692;50.710;7.180;2023-01-24T06:57:11;4.20;99.90
13251;DHT22;6692;50.710;7.180;2023-01-24T06:59:12;4.20;99.90
13251;DHT22;6692;50.710;7.180;2023-01-24T07:01:12;4.20;99.90
13251;DHT22;6692;50.710;7.180;2023-01-24T07:03:13;4.20;99.90
13251;DHT22;6692;50.710;7.180;2023-01-24T07:05:14;4.20;99.90
13251;DHT22;6692;50.710;7.180;2023-01-24T07:07:15;4.20;99.90
13251;DHT22;6692;50.710;7.180;2023-01-24T07:09:16;4.20;99.90
13251;DHT22;6692;50.710;7.180;2023-01-24T07:11:17;4.20;99.90
13251;DHT22;6692;50.710;7.180;2023-01-24T07:13:19;4.20;99.90
13251;DHT22;6692;50.710;7.180;2023-01-24T07:15:19;4.20;99.90
13251;DHT22;6692;50.710;7.180;2023-01-24T07:17:21;4.20;99.90
13251;DHT22;6692;50.710;7.180;2023-01-24T07:19:22;4.20;99.90
13251;DHT22;6692;50.710;7.180;2023-01-24T07:21:23;4.20;99.90
13251;DHT22;6692;50.710;7.180;2023-01-24T07:23:25;4.30;99.90
13251;DHT22;6692;50.710;7.180;2023-01-24T07:25:25;4.20;99.90
13251;DHT22;6692;50.710;7.180;2023-01-24T07:27:26;4.20;99.90
13251;DHT22;6692;50.710;7.180;2023-01-24T07:29:28;4.30;99.90
13251;DHT22;6692;50.710;7.180;2023-01-24T07:31:29;4.20;99.90
13251;DHT22;6692;50.710;7.180;2023-01-24T07:33:29;4.30;99.90
13251;DHT22;6692;50.710;7.180;2023-01-24T07:35:30;4.20;99.90
13251;DHT22;6692;50.710;7.180;2023-01-24T07:37:31;4.30;99.90
13251;DHT22;6692;50.710;7.180;2023-01-24T07:39:31;4.30;99.90
13251;DHT22;6692;50.710;7.180;2023-01-24T07:41:32;4.30;99.90
13251;DHT22;6692;50.710;7.180;2023-01-24T07:43:33;4.30;99.90
13251;DHT22;6692;50.710;7.180;2023-01-24T07:45:34;4.30;99.90
13251;DHT22;6692;50.710;7.180;2023-01-24T07:47:35;4.30;99.90
13251;DHT22;6692;50.710;7.180;2023-01-24T07:49:36;4.40;99.90
13251;DHT22;6692;50.710;7.180;2023-01-24T07:51:37;4.40;99.90
13251;DHT22;6692;50.710;7.180;2023-01-24T07:53:39;4.40;99.90
13251;DHT22;6692;50.710;7.180;2023-01-24T07:55:39;4.40;99.90
13251;DHT22;6692;50.710;7.180;2023-01-24T07:57:40;4.40;99.90
13251;DHT22;6692;50.710;7.180;2023-01-24T07:59:41;4.40;99.90
13251;DHT22;6692;50.710;7.180;2023-01-24T08:01:41;4.40;99.90
13251;DHT22;6692;50.710;7.180;2023-01-24T08:03:43;4.40;99.90
13251;DHT22;6692;50.710;7.180;2023-01-24T08:05:44;4.40;99.90
13251;DHT22;6692;50.710;7.180;2023-01-24T08:07:45;4.40;99.90
13251;DHT22;6692;50.710;7.180;2023-01-24T08:09:48;4.50;99.90
13251;DHT22;6692;50.710;7.180;2023-01-24T08:11:47;4.50;99.90
13251;DHT22;6692;50.710;7.180;2023-01-24T08:13:49;4.50;99.90
13251;DHT22;6692;50.710;7.180;2023-01-24T08:15:50;4.60;99.90
13251;DHT22;6692;50.710;7.180;2023-01-24T08:17:51;4.60;99.90
13251;DHT22;6692;50.710;7.180;2023-01-24T08:19:52;4.60;99.90
13251;DHT22;6692;50.710;7.180;2023-01-24T08:21:53;4.60;99.90
13251;DHT22;6692;50.710;7.180;2023-01-24T08:23:54;4.70;99.90
13251;DHT22;6692;50.710;7.180;2023-01-24T08:25:57;4.70;99.90
13251;DHT22;6692;50.710;7.180;2023-01-24T08:27:58;4.70;99.90
13251;DHT22;6692;50.710;7.180;2023-01-24T08:29:59;4.70;99.90
13251;DHT22;6692;50.710;7.180;2023-01-24T08:32:00;4.70;99.90
13251;DHT22;6692;50.710;7.180;2023-01-24T08:34:01;4.80;99.90
13251;DHT22;6692;50.710;7.180;2023-01-24T08:36:02;4.70;99.90
13251;DHT22;6692;50.710;7.180;2023-01-24T08:38:03;4.70;99.90
13251;DHT22;6692;50.710;7.180;2023-01-24T08:40:06;4.80;99.90
13251;DHT22;6692;50.710;7.180;2023-01-24T08:42:07;4.80;99.90
13251;DHT22;6692;50.710;7.180;2023-01-24T08:44:08;4.80;99.90
13251;DHT22;6692;50.710;7.180;2023-01-24T08:46:08;4.90;99.90
13251;DHT22;6692;50.710;7.180;2023-01-24T08:48:09;4.90;99.90
13251;DHT22;6692;50.710;7.180;2023-01-24T08:50:10;4.90;99.90
13251;DHT22;6692;50.710;7.180;2023-01-24T08:52:11;4.90;99.90
13251;DHT22;6692;50.710;7.180;2023-01-24T08:54:12;4.90;99.90
13251;DHT22;6692;50.710;7.180;2023-01-24T08:56:12;5.00;99.90
13251;DHT22;6692;50.710;7.180;2023-01-24T08:58:13;4.90;99.90
13251;DHT22;6692;50.710;7.180;2023-01-24T09:00:15;4.90;99.90
13251;DHT22;6692;50.710;7.180;2023-01-24T09:02:16;4.90;99.90
13251;DHT22;6692;50.710;7.180;2023-01-24T09:04:17;4.90;99.90
13251;DHT22;6692;50.710;7.180;2023-01-24T09:06:18;5.00;99.90
13251;DHT22;6692;50.710;7.180;2023-01-24T09:08:19;5.00;99.90
13251;DHT22;6692;50.710;7.180;2023-01-24T09:10:19;5.00;99.90
13251;DHT22;6692;50.710;7.180;2023-01-24T09:12:20;5.00;99.90
13251;DHT22;6692;50.710;7.180;2023-01-24T09:14:21;5.00;99.90
13251;DHT22;6692;50.710;7.180;2023-01-24T09:16:22;5.10;99.90
13251;DHT22;6692;50.710;7.180;2023-01-24T09:18:22;5.10;99.90
13251;DHT22;6692;50.710;7.180;2023-01-24T09:20:23;5.20;99.90
13251;DHT22;6692;50.710;7.180;2023-01-24T09:22:24;5.20;99.90
13251;DHT22;6692;50.710;7.180;2023-01-24T09:24:24;5.30;99.90
13251;DHT22;6692;50.710;7.180;2023-01-24T09:26:25;5.30;99.90
13251;DHT22;6692;50.710;7.180;2023-01-24T09:28:26;5.40;99.90
13251;DHT22;6692;50.710;7.180;2023-01-24T09:30:27;5.40;99.90
13251;DHT22;6692;50.710;7.180;2023-01-24T09:32:28;5.40;99.90
13251;DHT22;6692;50.710;7.180;2023-01-24T09:34:29;5.40;99.90
13251;DHT22;6692;50.710;7.180;2023-01-24T09:36:30;5.40;99.90
13251;DHT22;6692;50.710;7.180;2023-01-24T09:38:32;5.50;99.90
13251;DHT22;6692;50.710;7.180;2023-01-24T09:43:00;5.50;99.90
13251;DHT22;6692;50.710;7.180;2023-01-24T09:45:03;5.50;99.90
13251;DHT22;6692;50.710;7.180;2023-01-24T09:47:00;5.50;99.90
13251;DHT22;6692;50.710;7.180;2023-01-24T09:49:11;5.60;99.90
13251;DHT22;6692;50.710;7.180;2023-01-24T09:51:13;5.60;99.90
13251;DHT22;6692;50.710;7.180;2023-01-24T09:53:18;5.60;99.90
13251;DHT22;6692;50.710;7.180;2023-01-24T09:55:22;5.60;99.90
13251;DHT22;6692;50.710;7.180;2023-01-24T09:57:27;5.60;99.90
13251;DHT22;6692;50.710;7.180;2023-01-24T09:59:33;5.70;99.90
13251;DHT22;6692;50.710;7.180;2023-01-24T10:01:30;5.70;99.90
13251;DHT22;6692;50.710;7.180;2023-01-24T10:03:31;5.70;99.90
13251;DHT22;6692;50.710;7.180;2023-01-24T10:05:35;5.70;99.90
13251;DHT22;6692;50.710;7.180;2023-01-24T10:10:04;5.70;99.90
13251;DHT22;6692;50.710;7.180;2023-01-24T10:12:09;5.60;99.90
13251;DHT22;6692;50.710;7.180;2023-01-24T10:14:20;5.50;99.90
13251;DHT22;6692;50.710;7.180;2023-01-24T10:16:44;5.50;99.90
13251;DHT22;6692;50.710;7.180;2023-01-24T10:18:49;5.50;99.90
13251;DHT22;6692;50.710;7.180;2023-01-24T10:21:07;5.50;99.90
13251;DHT22;6692;50.710;7.180;2023-01-24T10:22:59;5.40;99.90
13251;DHT22;6692;50.710;7.180;2023-01-24T10:25:00;5.50;99.90
13251;DHT22;6692;50.710;7.180;2023-01-24T10:26:58;5.40;99.90
13251;DHT22;6692;50.710;7.180;2023-01-24T10:29:06;5.50;99.90
13251;DHT22;6692;50.710;7.180;2023-01-24T10:31:13;5.50;99.90
13251;DHT22;6692;50.710;7.180;2023-01-24T10:33:16;5.50;99.90
13251;DHT22;6692;50.710;7.180;2023-01-24T10:35:19;5.40;99.90
13251;DHT22;6692;50.710;7.180;2023-01-24T10:37:19;5.50;99.90
13251;DHT22;6692;50.710;7.180;2023-01-24T10:39:19;5.50;99.90
13251;DHT22;6692;50.710;7.180;2023-01-24T10:41:21;5.50;99.90
13251;DHT22;6692;50.710;7.180;2023-01-24T10:43:23;5.60;99.90
13251;DHT22;6692;50.710;7.180;2023-01-24T10:47:49;5.60;99.90
13251;DHT22;6692;50.710;7.180;2023-01-24T10:49:51;5.70;99.90
13251;DHT22;6692;50.710;7.180;2023-01-24T10:52:06;5.70;99.90
13251;DHT22;6692;50.710;7.180;2023-01-24T10:54:00;5.80;99.90
13251;DHT22;6692;50.710;7.180;2023-01-24T10:56:02;5.80;99.90
13251;DHT22;6692;50.710;7.180;2023-01-24T11:00:25;5.90;99.90
13251;DHT22;6692;50.710;7.180;2023-01-24T11:02:24;5.90;99.90
13251;DHT22;6692;50.710;7.180;2023-01-24T11:04:26;5.90;99.90
13251;DHT22;6692;50.710;7.180;2023-01-24T11:06:37;5.90;99.90
13251;DHT22;6692;50.710;7.180;2023-01-24T11:08:38;5.90;99.90
13251;DHT22;6692;50.710;7.180;2023-01-24T11:10:40;5.80;99.90
13251;DHT22;6692;50.710;7.180;2023-01-24T11:12:48;5.90;99.90
13251;DHT22;6692;50.710;7.180;2023-01-24T11:14:48;5.90;99.90
13251;DHT22;6692;50.710;7.180;2023-01-24T11:16:50;5.90;99.90
13251;DHT22;6692;50.710;7.180;2023-01-24T11:18:52;5.90;99.90
13251;DHT22;6692;50.710;7.180;2023-01-24T11:21:05;5.90;99.90
13251;DHT22;6692;50.710;7.180;2023-01-24T11:23:20;5.90;99.90
13251;DHT22;6692;50.710;7.180;2023-01-24T11:25:21;5.90;99.90
13251;DHT22;6692;50.710;7.180;2023-01-24T11:27:22;5.90;99.90
13251;DHT22;6692;50.710;7.180;2023-01-24T11:29:23;5.90;99.90
13251;DHT22;6692;50.710;7.180;2023-01-24T11:31:30;5.90;99.90
13251;DHT22;6692;50.710;7.180;2023-01-24T11:33:38;5.90;99.90
13251;DHT22;6692;50.710;7.180;2023-01-24T11:35:36;5.80;99.90
13251;DHT22;6692;50.710;7.180;2023-01-24T11:47:05;5.70;99.90
13251;DHT22;6692;50.710;7.180;2023-01-24T11:49:20;5.70;99.90
13251;DHT22;6692;50.710;7.180;2023-01-24T11:51:45;5.70;99.90
13251;DHT22;6692;50.710;7.180;2023-01-24T11:54:23;5.70;99.90
13251;DHT22;6692;50.710;7.180;2023-01-24T11:56:13;5.90;99.90
13251;DHT22;6692;50.710;7.180;2023-01-24T12:00:42;5.90;99.90
13251;DHT22;6692;50.710;7.180;2023-01-24T12:04:14;5.90;99.90
13251;DHT22;6692;50.710;7.180;2023-01-24T12:05:25;5.90;99.90
13251;DHT22;6692;50.710;7.180;2023-01-24T12:07:34;5.90;99.90
13251;DHT22;6692;50.710;7.180;2023-01-24T12:09:32;5.90;99.90
13251;DHT22;6692;50.710;7.180;2023-01-24T12:11:39;6.00;99.90
13251;DHT22;6692;50.710;7.180;2023-01-24T12:13:50;6.00;99.90
13251;DHT22;6692;50.710;7.180;2023-01-24T12:18:23;6.00;99.90
13251;DHT22;6692;50.710;7.180;2023-01-24T12:20:26;6.00;99.90
13251;DHT22;6692;50.710;7.180;2023-01-24T12:22:24;5.90;99.90
13251;DHT22;6692;50.710;7.180;2023-01-24T12:24:27;5.90;99.90
13251;DHT22;6692;50.710;7.180;2023-01-24T12:26:28;5.90;99.90
13251;DHT22;6692;50.710;7.180;2023-01-24T12:28:31;6.00;99.90
13251;DHT22;6692;50.710;7.180;2023-01-24T12:30:37;6.00;99.90
13251;DHT22;6692;50.710;7.180;2023-01-24T12:32:40;5.90;99.90
13251;DHT22;6692;50.710;7.180;2023-01-24T12:34:43;6.00;99.90
13251;DHT22;6692;50.710;7.180;2023-01-24T12:36:46;6.00;99.90
13251;DHT22;6692;50.710;7.180;2023-01-24T12:38:45;6.00;99.90
13251;DHT22;6692;50.710;7.180;2023-01-24T12:41:09;6.10;99.90
13251;DHT22;6692;50.710;7.180;2023-01-24T12:43:13;6.10;99.90
13251;DHT22;6692;50.710;7.180;2023-01-24T12:45:14;6.00;99.90
13251;DHT22;6692;50.710;7.180;2023-01-24T12:47:46;6.00;99.90
13251;DHT22;6692;50.710;7.180;2023-01-24T12:54:56;6.00;99.90
13251;DHT22;6692;50.710;7.180;2023-01-24T12:57:01;5.90;99.90
13251;DHT22;6692;50.710;7.180;2023-01-24T12:59:00;5.90;99.90
13251;DHT22;6692;50.710;7.180;2023-01-24T13:01:26;5.90;99.90
13251;DHT22;6692;50.710;7.180;2023-01-24T13:03:18;5.90;99.90
13251;DHT22;6692;50.710;7.180;2023-01-24T13:05:27;5.90;99.90
13251;DHT22;6692;50.710;7.180;2023-01-24T13:07:32;5.90;99.90
13251;DHT22;6692;50.710;7.180;2023-01-24T13:09:38;5.90;99.90
13251;DHT22;6692;50.710;7.180;2023-01-24T13:11:40;5.80;99.90
13251;DHT22;6692;50.710;7.180;2023-01-24T13:13:40;5.80;99.90
13251;DHT22;6692;50.710;7.180;2023-01-24T13:15:43;5.80;99.90
13251;DHT22;6692;50.710;7.180;2023-01-24T13:18:02;5.80;99.90
13251;DHT22;6692;50.710;7.180;2023-01-24T13:20:28;5.70;99.90
13251;DHT22;6692;50.710;7.180;2023-01-24T13:22:30;5.70;99.90
13251;DHT22;6692;50.710;7.180;2023-01-24T13:24:36;5.70;99.90
13251;DHT22;6692;50.710;7.180;2023-01-24T13:26:41;5.60;99.90
13251;DHT22;6692;50.710;7.180;2023-01-24T13:28:48;5.60;99.90
13251;DHT22;6692;50.710;7.180;2023-01-24T13:31:35;5.60;99.90
13251;DHT22;6692;50.710;7.180;2023-01-24T13:33:19;5.60;99.90
13251;DHT22;6692;50.710;7.180;2023-01-24T13:35:20;5.60;99.90
13251;DHT22;6692;50.710;7.180;2023-01-24T13:37:25;5.70;99.90
13251;DHT22;6692;50.710;7.180;2023-01-24T13:39:34;5.70;99.90
13251;DHT22;6692;50.710;7.180;2023-01-24T13:41:36;5.70;99.90
13251;DHT22;6692;50.710;7.180;2023-01-24T13:43:55;5.70;99.90
13251;DHT22;6692;50.710;7.180;2023-01-24T13:45:54;5.70;99.90
13251;DHT22;6692;50.710;7.180;2023-01-24T13:47:56;5.70;99.90
13251;DHT22;6692;50.710;7.180;2023-01-24T13:50:13;5.70;99.90
13251;DHT22;6692;50.710;7.180;2023-01-24T13:54:33;5.60;99.90